Route Details

Aircraft Information
Group: Trans-Pacific Ops
Types: B744, MD11
Route Data
Distance: 3403nm
Duration: 6h 54m
Origin METAR: YSSY 160000Z 28016KT 9999 FEW040 16/05 Q1010
Dest. METAR: WSSS 160000Z 17008KT 9999 VCSH SCT012 FEW016CB SCT017TCU 27/24 Q1010 TEMPO FM0010 TL0040 4000 SHRA
Freight Data
(for Aug 16, 2022)
Load Factor:
93%
Manifested Cargo: 193,152lbs
Financial History
Total Freight: 532,810lbs
Average Load: 0lbs/flt
Fuel Used: 501,861lbs
Avg. Fuel Used: 0lbs/flt
Fuel Expense: $272,031
Avg. Fuel Expense: $0
Avg. Fuel Cost: $0/lbs
Total Gross Income: $2,491,305
Pilot Pay: $637
Total Expenses: $434,558
Total Revenue: $1,779,005
Average Revenue: $0

Capitol Logistics 803




YSSY
Kingsford Smith International Airport
Sydney, AU
WSSS
Changi International Airport
Singapore, SG